createdAt,value
2019-04-07T00:01:27.556Z,8.00
2019-04-07T00:03:56.182Z,7.90
2019-04-07T00:06:24.670Z,8.00
2019-04-07T00:08:53.572Z,7.90
2019-04-07T00:11:24.028Z,7.90
2019-04-07T00:13:52.562Z,7.90
2019-04-07T00:16:21.539Z,7.80
2019-04-07T00:18:50.057Z,7.80
2019-04-07T00:21:18.577Z,7.80
2019-04-07T00:23:47.073Z,7.80
2019-04-07T00:26:15.713Z,7.80
2019-04-07T00:28:44.307Z,7.70
2019-04-07T00:31:13.383Z,7.70
2019-04-07T00:33:42.623Z,7.70
2019-04-07T00:36:11.215Z,7.70
2019-04-07T00:38:39.762Z,7.70
2019-04-07T00:41:08.874Z,7.60
2019-04-07T00:43:38.081Z,7.60
2019-04-07T00:46:06.626Z,7.60
2019-04-07T00:48:35.099Z,7.60
2019-04-07T00:51:03.704Z,7.60
2019-04-07T00:53:32.168Z,7.60
2019-04-07T00:56:00.690Z,7.60
2019-04-07T00:58:29.238Z,7.60
2019-04-07T01:00:57.785Z,7.60
2019-04-07T01:03:26.899Z,7.60
2019-04-07T01:05:56.096Z,7.60
2019-04-07T01:08:24.618Z,7.60
2019-04-07T01:10:53.345Z,7.50
2019-04-07T01:13:22.004Z,7.60
2019-04-07T01:15:50.666Z,7.50
2019-04-07T01:18:19.593Z,7.50
2019-04-07T01:20:48.405Z,7.50
2019-04-07T01:23:17.127Z,7.50
2019-04-07T01:25:45.735Z,7.50
2019-04-07T01:28:14.769Z,7.50
2019-04-07T01:30:43.344Z,7.50
2019-04-07T01:33:11.901Z,7.50
2019-04-07T01:35:48.081Z,7.50
2019-04-07T01:38:10.666Z,7.40
2019-04-07T01:40:39.135Z,7.40
2019-04-07T01:43:09.334Z,7.40
2019-04-07T01:45:39.615Z,7.40
2019-04-07T01:48:19.236Z,7.40
2019-04-07T01:50:52.640Z,7.40
2019-04-07T01:53:25.724Z,7.30
2019-04-07T01:56:11.028Z,7.30
2019-04-07T01:58:44.401Z,7.30
2019-04-07T02:01:20.883Z,7.30
2019-04-07T02:03:51.237Z,7.30
2019-04-07T02:06:33.302Z,7.30
2019-04-07T02:09:03.610Z,7.30
2019-04-07T02:11:42.958Z,7.30
2019-04-07T02:14:22.455Z,7.30
2019-04-07T02:16:52.750Z,7.30
2019-04-07T02:19:38.034Z,7.20
2019-04-07T02:22:26.730Z,7.20
2019-04-07T02:24:57.519Z,7.20
2019-04-07T02:27:39.641Z,7.20
2019-04-07T02:30:14.380Z,7.20
2019-04-07T02:32:44.680Z,7.20
2019-04-07T02:35:24.641Z,7.20
2019-04-07T02:37:54.926Z,7.20
2019-04-07T02:40:34.324Z,7.10
2019-04-07T02:43:10.953Z,7.10
2019-04-07T02:45:59.841Z,7.10
2019-04-07T02:48:48.928Z,7.10
2019-04-07T02:51:22.903Z,7.00
2019-04-07T02:54:09.191Z,7.00
2019-04-07T02:56:42.645Z,7.00
2019-04-07T02:59:29.208Z,6.90
2019-04-07T03:02:05.884Z,6.70
2019-04-07T03:04:42.304Z,6.80
2019-04-07T03:07:29.109Z,6.70
2019-04-07T03:10:02.934Z,6.90
2019-04-07T03:12:42.341Z,7.00
2019-04-07T03:15:16.113Z,7.00
2019-04-07T03:17:47.667Z,7.00
2019-04-07T03:20:18.740Z,7.00
2019-04-07T03:22:55.010Z,6.80
2019-04-07T03:25:31.094Z,6.90
2019-04-07T03:28:04.706Z,6.90
2019-04-07T03:30:37.522Z,6.90
2019-04-07T03:33:18.097Z,7.00
2019-04-07T03:36:01.140Z,6.90
2019-04-07T03:38:34.338Z,6.80
2019-04-07T03:41:19.707Z,6.60
2019-04-07T03:43:53.004Z,6.60
2019-04-07T03:46:29.081Z,6.50
2019-04-07T03:49:11.367Z,6.50
2019-04-07T03:51:48.082Z,6.50
2019-04-07T03:54:28.304Z,6.60
2019-04-07T03:56:58.663Z,6.70
2019-04-07T03:59:31.466Z,6.70
2019-04-07T04:02:07.960Z,6.80
2019-04-07T04:04:39.348Z,6.90
2019-04-07T04:07:29.981Z,6.90
2019-04-07T04:09:54.255Z,6.80
2019-04-07T04:12:37.414Z,6.70
2019-04-07T04:15:09.038Z,6.80
2019-04-07T04:17:37.701Z,6.80
2019-04-07T04:20:08.267Z,6.80
2019-04-07T04:22:37.737Z,6.90
2019-04-07T04:25:08.485Z,6.80
2019-04-07T04:27:38.769Z,6.80
2019-04-07T04:30:10.523Z,6.70
2019-04-07T04:32:39.764Z,6.60
2019-04-07T04:35:08.647Z,6.70
2019-04-07T04:37:44.398Z,6.80
2019-04-07T04:40:07.718Z,6.80
2019-04-07T04:42:36.277Z,6.80
2019-04-07T04:45:08.317Z,6.80
2019-04-07T04:47:37.689Z,6.80
2019-04-07T04:50:08.182Z,6.90
2019-04-07T04:52:37.976Z,6.90
2019-04-07T04:55:07.260Z,6.90
2019-04-07T04:57:35.897Z,6.90
2019-04-07T05:00:08.689Z,6.90
2019-04-07T05:02:37.198Z,6.90
2019-04-07T05:05:09.409Z,6.90
2019-04-07T05:07:50.078Z,7.00
2019-04-07T05:10:08.305Z,7.10
2019-04-07T05:12:37.045Z,7.10
2019-04-07T05:15:07.702Z,7.10
2019-04-07T05:17:36.915Z,7.20
2019-04-07T05:20:07.012Z,7.30
2019-04-07T05:22:35.865Z,7.40
2019-04-07T05:25:07.072Z,7.40
2019-04-07T05:27:35.797Z,7.50
2019-04-07T05:30:07.762Z,7.60
2019-04-07T05:32:36.842Z,7.80
2019-04-07T05:35:07.819Z,7.90
2019-04-07T05:37:36.633Z,8.10
2019-04-07T05:40:05.964Z,8.30
2019-04-07T05:42:34.506Z,8.70
2019-04-07T05:45:05.148Z,9.40
2019-04-07T05:47:33.823Z,10.30
2019-04-07T05:50:04.019Z,11.00
2019-04-07T05:52:37.843Z,11.70
2019-04-07T05:55:03.318Z,12.60
2019-04-07T05:57:34.650Z,13.20
2019-04-07T06:00:02.599Z,13.60
2019-04-07T06:02:32.594Z,13.80
2019-04-07T06:05:01.434Z,13.80
2019-04-07T06:07:31.791Z,14.20
2019-04-07T06:10:00.976Z,14.60
2019-04-07T06:12:29.523Z,15.00
2019-04-07T06:14:58.527Z,15.10
2019-04-07T06:17:27.734Z,15.30
2019-04-07T06:19:57.705Z,15.50
2019-04-07T06:22:26.310Z,15.90
2019-04-07T06:24:54.858Z,16.30
2019-04-07T06:27:23.993Z,16.60
2019-04-07T06:29:57.195Z,17.10
2019-04-07T06:32:22.787Z,17.40
2019-04-07T06:34:51.287Z,17.70
2019-04-07T06:37:19.998Z,18.10
2019-04-07T06:39:50.594Z,18.50
2019-04-07T06:42:18.780Z,18.60
2019-04-07T06:44:50.105Z,19.10
2019-04-07T06:47:30.791Z,19.30
2019-04-07T06:50:15.980Z,19.70
2019-04-07T06:52:53.127Z,20.00
2019-04-07T06:55:26.633Z,20.10
2019-04-07T06:57:59.219Z,20.30
2019-04-07T07:00:46.198Z,20.60
2019-04-07T07:03:22.647Z,20.90
2019-04-07T07:06:05.654Z,21.20
2019-04-07T07:08:43.815Z,21.30
2019-04-07T07:11:23.125Z,21.30
2019-04-07T07:13:45.071Z,21.50
2019-04-07T07:16:27.756Z,21.50
2019-04-07T07:19:02.042Z,21.80
2019-04-07T07:21:39.214Z,22.20
2019-04-07T07:24:05.973Z,22.20
2019-04-07T07:26:35.423Z,22.70
2019-04-07T07:29:06.479Z,23.20
2019-04-07T07:31:34.801Z,22.00
2019-04-07T07:34:03.785Z,23.20
2019-04-07T07:36:32.871Z,23.20
2019-04-07T07:39:03.301Z,23.60
2019-04-07T07:41:31.656Z,24.30
2019-04-07T07:44:03.229Z,23.70
2019-04-07T07:46:30.457Z,24.70
2019-04-07T07:49:01.904Z,23.70
2019-04-07T07:51:29.346Z,24.30
2019-04-07T07:54:00.555Z,24.80
2019-04-07T07:56:28.113Z,23.90
2019-04-07T07:58:59.867Z,24.80
2019-04-07T08:01:26.874Z,24.40
2019-04-07T08:03:55.792Z,23.70
2019-04-07T08:06:26.273Z,25.00
2019-04-07T08:09:07.426Z,25.80
2019-04-07T08:11:25.372Z,25.90
2019-04-07T08:13:55.323Z,26.00
2019-04-07T08:16:24.071Z,26.20
2019-04-07T08:18:52.630Z,26.40
2019-04-07T08:21:21.285Z,26.30
2019-04-07T08:23:49.808Z,25.90
2019-04-07T08:26:18.339Z,26.10
2019-04-07T08:28:49.246Z,26.40
2019-04-07T08:31:21.346Z,26.60
2019-04-07T08:33:51.238Z,26.30
2019-04-07T08:36:18.483Z,25.40
2019-04-07T08:38:47.685Z,25.90
2019-04-07T08:41:16.690Z,27.10
2019-04-07T08:43:45.369Z,27.90
2019-04-07T08:46:14.038Z,27.60
2019-04-07T08:48:42.556Z,27.00
2019-04-07T08:51:11.269Z,27.30
2019-04-07T08:53:43.559Z,27.10
2019-04-07T08:56:13.001Z,27.50
2019-04-07T08:58:42.483Z,28.70
2019-04-07T09:01:11.225Z,28.20
2019-04-07T09:03:39.991Z,27.70
2019-04-07T09:06:08.610Z,27.90
2019-04-07T09:08:39.020Z,28.70
2019-04-07T09:11:12.389Z,29.10
2019-04-07T09:13:44.056Z,29.00
2019-04-07T09:16:17.741Z,30.00
2019-04-07T09:19:04.355Z,28.60
2019-04-07T09:21:38.662Z,29.00
2019-04-07T09:24:21.355Z,29.30
2019-04-07T09:26:52.351Z,29.90
2019-04-07T09:29:27.984Z,30.60
2019-04-07T09:32:06.568Z,30.80
2019-04-07T09:34:42.853Z,29.80
2019-04-07T09:37:17.756Z,30.10
2019-04-07T09:40:04.790Z,29.90
2019-04-07T09:42:35.592Z,30.70
2019-04-07T09:45:24.505Z,30.90
2019-04-07T09:48:10.844Z,30.60
2019-04-07T09:50:58.643Z,30.50
2019-04-07T09:53:28.610Z,30.70
2019-04-07T09:56:08.505Z,30.20
2019-04-07T09:58:39.192Z,29.80
2019-04-07T10:01:12.354Z,29.00
2019-04-07T10:03:43.402Z,29.10
2019-04-07T10:06:28.501Z,29.20
2019-04-07T10:08:58.872Z,29.60
2019-04-07T10:11:31.874Z,29.50
2019-04-07T10:14:05.667Z,28.80
2019-04-07T10:16:48.479Z,28.50
2019-04-07T10:19:25.493Z,29.00
2019-04-07T10:22:02.610Z,29.70
2019-04-07T10:24:39.403Z,29.40
2019-04-07T10:27:10.779Z,29.80
2019-04-07T10:29:43.924Z,29.70
2019-04-07T10:32:30.847Z,29.90
2019-04-07T10:35:07.098Z,29.60
2019-04-07T10:37:55.078Z,29.90
2019-04-07T10:40:34.580Z,30.30
2019-04-07T10:43:20.256Z,29.80
2019-04-07T10:45:58.913Z,29.30
2019-04-07T10:48:37.963Z,28.70
2019-04-07T10:51:28.501Z,28.80
2019-04-07T10:54:02.598Z,29.40
2019-04-07T10:56:45.082Z,29.60
2019-04-07T10:59:16.058Z,29.40
2019-04-07T11:01:58.538Z,28.90
2019-04-07T11:04:37.661Z,28.70
2019-04-07T11:07:20.509Z,28.90
2019-04-07T11:09:50.884Z,28.50
2019-04-07T11:12:27.569Z,28.50
2019-04-07T11:15:09.635Z,27.60
2019-04-07T11:17:43.585Z,27.70
2019-04-07T11:20:20.500Z,28.10
2019-04-07T11:22:59.571Z,27.80
2019-04-07T11:25:41.459Z,27.30
2019-04-07T11:28:12.273Z,27.30
2019-04-07T11:30:43.648Z,27.40
2019-04-07T11:33:23.020Z,26.50
2019-04-07T11:36:06.027Z,26.40
2019-04-07T11:38:51.631Z,26.50
2019-04-07T11:41:28.838Z,26.80
2019-04-07T11:44:02.022Z,26.80
2019-04-07T11:46:48.753Z,26.00
2019-04-07T11:49:22.953Z,24.10
2019-04-07T11:52:09.378Z,23.00
2019-04-07T11:54:52.117Z,22.30
2019-04-07T11:57:31.231Z,21.90
2019-04-07T12:00:14.151Z,21.50
2019-04-07T12:03:00.815Z,21.20
2019-04-07T12:05:37.758Z,21.20
2019-04-07T12:08:20.414Z,21.00
2019-04-07T12:11:06.732Z,20.70
2019-04-07T12:13:42.886Z,20.70
2019-04-07T12:16:29.514Z,20.80
2019-04-07T12:19:00.171Z,20.80
2019-04-07T12:21:36.076Z,20.90
2019-04-07T12:24:24.599Z,21.00
2019-04-07T12:26:51.835Z,20.90
2019-04-07T12:29:22.299Z,21.00
2019-04-07T12:32:12.288Z,21.20
2019-04-07T12:34:58.534Z,21.20
2019-04-07T12:37:31.781Z,21.20
2019-04-07T12:40:09.359Z,21.20
2019-04-07T12:42:58.073Z,21.10
2019-04-07T12:45:28.516Z,21.00
2019-04-07T12:47:59.384Z,20.80
2019-04-07T12:50:35.791Z,20.80
2019-04-07T12:53:22.800Z,20.90
2019-04-07T12:56:00.983Z,20.90
2019-04-07T12:58:46.050Z,21.00
2019-04-07T13:01:31.682Z,21.00
2019-04-07T13:04:01.863Z,20.90
2019-04-07T13:06:35.248Z,20.90
2019-04-07T13:09:24.549Z,20.80
2019-04-07T13:12:00.323Z,20.90
2019-04-07T13:14:47.890Z,20.80
2019-04-07T13:17:37.984Z,20.80
2019-04-07T13:20:23.415Z,20.80
2019-04-07T13:23:06.086Z,20.80
2019-04-07T13:25:39.635Z,20.60
2019-04-07T13:28:10.840Z,20.60
2019-04-07T13:30:58.355Z,20.50
2019-04-07T13:33:46.841Z,20.40
2019-04-07T13:36:23.558Z,20.50
2019-04-07T13:39:10.138Z,20.50
2019-04-07T13:41:45.775Z,20.50
2019-04-07T13:44:17.978Z,20.60
2019-04-07T13:46:48.932Z,20.50
2019-04-07T13:49:35.948Z,20.50
2019-04-07T13:52:06.144Z,20.30
2019-04-07T13:54:49.286Z,20.00
2019-04-07T13:57:22.266Z,19.70
2019-04-07T14:00:06.610Z,19.30
2019-04-07T14:02:40.050Z,19.20
2019-04-07T14:05:20.063Z,19.10
2019-04-07T14:08:07.069Z,19.20
2019-04-07T14:10:47.143Z,19.20
2019-04-07T14:13:26.745Z,19.10
2019-04-07T14:15:57.632Z,19.00
2019-04-07T14:18:32.032Z,19.00
2019-04-07T14:21:02.988Z,19.20
2019-04-07T14:23:52.100Z,19.30
2019-04-07T14:26:21.267Z,19.30
2019-04-07T14:28:54.074Z,19.30
2019-04-07T14:31:25.075Z,19.20
2019-04-07T14:33:55.646Z,19.20
2019-04-07T14:36:42.751Z,19.20
2019-04-07T14:39:13.742Z,19.20
2019-04-07T14:41:49.869Z,19.20
2019-04-07T14:44:32.132Z,19.30
2019-04-07T14:47:20.577Z,19.30
2019-04-07T14:49:57.210Z,19.20
2019-04-07T14:52:30.714Z,19.20
2019-04-07T14:55:13.005Z,19.00
2019-04-07T14:57:52.444Z,18.90
2019-04-07T15:00:29.223Z,18.70
2019-04-07T15:02:57.976Z,18.60
2019-04-07T15:05:31.054Z,18.60
2019-04-07T15:08:01.343Z,18.60
2019-04-07T15:10:37.449Z,18.60
2019-04-07T15:13:07.671Z,18.60
2019-04-07T15:15:36.865Z,18.50
2019-04-07T15:18:05.436Z,18.50
2019-04-07T15:20:34.447Z,18.30
2019-04-07T15:23:03.090Z,18.30
2019-04-07T15:25:31.666Z,18.20
2019-04-07T15:28:01.252Z,18.10
2019-04-07T15:30:29.982Z,18.00
2019-04-07T15:33:01.152Z,18.00
2019-04-07T15:35:29.633Z,18.00
2019-04-07T15:37:59.167Z,17.90
2019-04-07T15:40:28.150Z,17.90
2019-04-07T15:43:00.602Z,17.80
2019-04-07T15:45:27.461Z,17.80
2019-04-07T15:47:56.473Z,17.90
2019-04-07T15:50:29.236Z,17.80
2019-04-07T15:52:56.314Z,17.80
2019-04-07T15:55:37.130Z,17.70
2019-04-07T15:57:59.650Z,17.60
2019-04-07T16:00:28.415Z,17.50
2019-04-07T16:02:58.882Z,17.40
2019-04-07T16:05:27.849Z,17.40
2019-04-07T16:07:56.430Z,17.40
2019-04-07T16:10:25.899Z,17.30
2019-04-07T16:12:58.726Z,17.10
2019-04-07T16:15:25.110Z,17.00
2019-04-07T16:17:53.666Z,16.90
2019-04-07T16:20:26.287Z,16.80
2019-04-07T16:22:53.501Z,16.70
2019-04-07T16:25:25.458Z,16.70
2019-04-07T16:27:52.186Z,16.70
2019-04-07T16:30:23.214Z,16.70
2019-04-07T16:32:52.423Z,16.70
2019-04-07T16:35:21.335Z,16.70
2019-04-07T16:38:02.840Z,16.70
2019-04-07T16:40:35.887Z,16.70
2019-04-07T16:43:13.339Z,16.60
2019-04-07T16:45:34.623Z,16.60
2019-04-07T16:48:04.975Z,16.50
2019-04-07T16:50:33.364Z,16.50
2019-04-07T16:53:06.413Z,16.40
2019-04-07T16:55:37.524Z,16.30
2019-04-07T16:58:08.343Z,16.20
2019-04-07T17:00:38.373Z,16.10
2019-04-07T17:03:09.896Z,15.90
2019-04-07T17:05:46.217Z,15.80
2019-04-07T17:08:17.714Z,15.70
2019-04-07T17:10:45.334Z,15.60
2019-04-07T17:13:20.149Z,15.50
2019-04-07T17:15:44.509Z,15.40
2019-04-07T17:18:39.006Z,15.30
2019-04-07T17:21:16.712Z,15.20
2019-04-07T17:23:45.801Z,15.00
2019-04-07T17:26:14.623Z,15.00
2019-04-07T17:28:46.194Z,14.90
2019-04-07T17:31:14.279Z,14.80
2019-04-07T17:33:45.570Z,14.70
2019-04-07T17:36:20.190Z,14.50
2019-04-07T17:38:52.313Z,14.40
2019-04-07T17:41:21.417Z,14.40
2019-04-07T17:44:01.012Z,14.30
2019-04-07T17:46:49.131Z,14.20
2019-04-07T17:49:23.139Z,14.10
2019-04-07T17:52:10.948Z,14.00
2019-04-07T17:54:40.741Z,13.90
2019-04-07T17:57:11.946Z,13.80
2019-04-07T17:59:58.508Z,13.60
2019-04-07T18:02:52.664Z,13.50
2019-04-07T18:05:28.030Z,13.40
2019-04-07T18:08:01.802Z,13.30
2019-04-07T18:10:39.060Z,13.20
2019-04-07T18:13:25.795Z,13.10
2019-04-07T18:15:56.615Z,13.00
2019-04-07T18:18:26.821Z,12.90
2019-04-07T18:21:00.746Z,12.80
2019-04-07T18:23:47.259Z,12.70
2019-04-07T18:26:22.106Z,12.60
2019-04-07T18:28:55.942Z,12.50
2019-04-07T18:31:57.393Z,12.40
2019-04-07T18:34:45.000Z,12.40
2019-04-07T18:37:15.826Z,12.30
2019-04-07T18:39:52.335Z,12.30
2019-04-07T18:42:37.068Z,12.20
2019-04-07T18:45:23.211Z,12.20
2019-04-07T18:48:09.446Z,12.10
2019-04-07T18:50:40.060Z,12.00
2019-04-07T18:53:16.731Z,11.90
2019-04-07T18:55:59.272Z,11.70
2019-04-07T18:58:33.232Z,11.70
2019-04-07T19:01:11.594Z,11.60
2019-04-07T19:03:53.250Z,11.50
2019-04-07T19:06:42.180Z,11.40
2019-04-07T19:09:11.168Z,11.30
2019-04-07T19:11:41.693Z,11.20
2019-04-07T19:14:31.588Z,11.20
2019-04-07T19:16:52.872Z,11.10
2019-04-07T19:19:24.163Z,11.10
2019-04-07T19:22:04.540Z,11.00
2019-04-07T19:24:35.825Z,11.00
2019-04-07T19:27:21.879Z,10.90
2019-04-07T19:30:05.874Z,10.90
2019-04-07T19:32:36.874Z,10.80
2019-04-07T19:35:17.168Z,10.80
2019-04-07T19:38:04.727Z,10.80
2019-04-07T19:40:43.995Z,10.80
2019-04-07T19:43:31.907Z,10.80
2019-04-07T19:46:02.802Z,10.70
2019-04-07T19:48:34.322Z,10.70
2019-04-07T19:51:10.918Z,10.60
2019-04-07T19:53:44.201Z,10.60
2019-04-07T19:56:30.192Z,10.60
2019-04-07T19:59:17.353Z,10.60
2019-04-07T20:01:50.703Z,10.50
2019-04-07T20:04:23.632Z,10.50
2019-04-07T20:06:59.510Z,10.40
2019-04-07T20:09:39.119Z,10.40
2019-04-07T20:12:10.630Z,10.40
2019-04-07T20:14:56.562Z,10.40
2019-04-07T20:17:35.044Z,10.30
2019-04-07T20:20:24.232Z,10.30
2019-04-07T20:23:00.269Z,10.30
2019-04-07T20:25:36.171Z,10.30
2019-04-07T20:28:06.593Z,10.30
2019-04-07T20:30:45.558Z,10.20
2019-04-07T20:33:14.713Z,10.20
2019-04-07T20:35:48.025Z,10.10
2019-04-07T20:38:30.207Z,10.10
2019-04-07T20:41:10.357Z,10.00
2019-04-07T20:43:45.157Z,10.00
2019-04-07T20:46:32.000Z,10.00
2019-04-07T20:49:02.838Z,9.90
2019-04-07T20:51:52.978Z,9.90
2019-04-07T20:54:35.187Z,9.90
2019-04-07T20:57:09.255Z,9.80
2019-04-07T20:59:54.199Z,9.80
2019-04-07T21:02:30.266Z,9.80
2019-04-07T21:05:04.585Z,9.80
2019-04-07T21:07:35.494Z,9.80
2019-04-07T21:10:11.197Z,9.70
2019-04-07T21:12:42.799Z,9.70
2019-04-07T21:15:30.933Z,9.70
2019-04-07T21:18:17.907Z,9.60
2019-04-07T21:20:48.354Z,9.60
2019-04-07T21:23:21.294Z,9.50
2019-04-07T21:25:56.806Z,9.50
2019-04-07T21:28:42.771Z,9.60
2019-04-07T21:31:20.375Z,9.60
2019-04-07T21:33:57.687Z,9.50
2019-04-07T21:36:28.082Z,9.50
2019-04-07T21:39:16.574Z,9.50
2019-04-07T21:41:56.229Z,9.40
2019-04-07T21:44:38.595Z,9.40
2019-04-07T21:47:23.193Z,9.30
2019-04-07T21:49:53.571Z,9.30
2019-04-07T21:52:29.951Z,9.30
2019-04-07T21:55:16.969Z,9.20
2019-04-07T21:57:53.528Z,9.20
2019-04-07T22:00:19.083Z,9.20
2019-04-07T22:02:54.972Z,9.20
2019-04-07T22:05:26.882Z,9.20
2019-04-07T22:07:57.024Z,9.20
2019-04-07T22:10:27.569Z,9.10
2019-04-07T22:12:59.344Z,9.10
2019-04-07T22:15:26.747Z,9.20
2019-04-07T22:17:56.234Z,9.10
2019-04-07T22:20:25.066Z,9.10
2019-04-07T22:22:54.318Z,9.10
2019-04-07T22:25:32.546Z,9.10
2019-04-07T22:28:01.479Z,9.00
2019-04-07T22:30:30.637Z,9.00
2019-04-07T22:32:59.807Z,9.00
2019-04-07T22:35:28.693Z,8.90
2019-04-07T22:37:57.335Z,8.90
2019-04-07T22:40:26.641Z,8.80
2019-04-07T22:42:55.185Z,8.80
2019-04-07T22:45:26.849Z,8.80
2019-04-07T22:47:53.862Z,8.80
2019-04-07T22:50:23.355Z,8.80
2019-04-07T22:52:52.217Z,8.70
2019-04-07T22:55:21.030Z,8.70
2019-04-07T22:57:49.567Z,8.70
2019-04-07T23:00:21.303Z,8.70
2019-04-07T23:02:49.906Z,8.60
2019-04-07T23:05:19.137Z,8.60
2019-04-07T23:07:48.098Z,8.60
2019-04-07T23:10:17.743Z,8.60
2019-04-07T23:12:46.475Z,8.60
2019-04-07T23:15:15.219Z,8.60
2019-04-07T23:17:43.918Z,8.60
2019-04-07T23:20:13.120Z,8.60
2019-04-07T23:22:42.431Z,8.60
2019-04-07T23:25:11.959Z,8.60
2019-04-07T23:27:41.548Z,8.70
2019-04-07T23:30:11.742Z,8.60
2019-04-07T23:32:40.227Z,8.60
2019-04-07T23:35:08.850Z,8.60
2019-04-07T23:37:37.345Z,8.60
2019-04-07T23:40:06.783Z,8.50
2019-04-07T23:42:36.055Z,8.40
2019-04-07T23:45:06.910Z,8.40
2019-04-07T23:47:35.505Z,8.40
2019-04-07T23:50:07.147Z,8.50
2019-04-07T23:52:35.663Z,8.50
2019-04-07T23:55:04.323Z,8.40
2019-04-07T23:57:32.939Z,8.40
